Observation data for Morton on 12/07/2017      Previous  Date       Current Mesonet Observations  Soil Data  Daily Summary Page  Observations in Plain Language
KMNS 070605Z 02005KT M00/M11 A3038 RMK A01 T10011110  RH  044%=      5-min Rain = 0
KMNS 070610Z 02005KT 00/11 A3038 RMK A01 T00000-110  RH  044%=      5-min Rain = 0
KMNS 070615Z 03005KT 00/M11 A3038 RMK A01 T00011112  RH  043%=      5-min Rain = 0
KMNS 070620Z 02005KT 00/M11 A3038 RMK A01 T00021112  RH  043%=      5-min Rain = 0
KMNS 070625Z 03006KT 00/M11 A3038 RMK A01 T00031112  RH  043%=      5-min Rain = 0
KMNS 070630Z 04005KT 00/M11 A3038 RMK A01 T00041112  RH  042%=      5-min Rain = 0
KMNS 070635Z 03005KT 00/M11 A3038 RMK A01 T00041112  RH  042%=      5-min Rain = 0
KMNS 070640Z 03005KT 01/M11 A3037 RMK A01 T00051112  RH  042%=      5-min Rain = 0
KMNS 070645Z 03006KT 01/M11 A3037 RMK A01 T00061113  RH  041%=      5-min Rain = 0
KMNS 070650Z 04006KT 01/M11 A3037 RMK A01 T00071113  RH  041%=      5-min Rain = 0
KMNS 070655Z 05006KT 01/M11 A3037 RMK A01 T00071113  RH  041%=      5-min Rain = 0
KMNS 070700Z 04005KT 01/M11 A3037 RMK A01 T00061113  RH  041%=      5-min Rain = 0
KMNS 070705Z 04005KT 01/M11 A3037 RMK A01 T00061113  RH  041%=      5-min Rain = 0
KMNS 070710Z 03006KT 01/M11 A3037 RMK A01 T00061113  RH  041%=      5-min Rain = 0
KMNS 070715Z 03006KT 01/M11 A3037 RMK A01 T00061112  RH  041%=      5-min Rain = 0
KMNS 070720Z 03006KT 01/M11 A3037 RMK A01 T00061111  RH  042%=      5-min Rain = 0
KMNS 070725Z 02006KT 01/M11 A3037 RMK A01 T00061111  RH  042%=      5-min Rain = 0
KMNS 070730Z 02005KT 01/M11 A3037 RMK A01 T00061110  RH  042%=      5-min Rain = 0
KMNS 070735Z 02005KT 01/M11 A3037 RMK A01 T00061110  RH  042%=      5-min Rain = 0
KMNS 070740Z 01005KT 01/M11 A3037 RMK A01 T00051109  RH  042%=      5-min Rain = 0
KMNS 070745Z 01004KT 00/M11 A3037 RMK A01 T00041109  RH  043%=      5-min Rain = 0
KMNS 070750Z 00004KT 00/M11 A3037 RMK A01 T00021108  RH  044%=      5-min Rain = 0
KMNS 070755Z 36004KT 00/11 A3037 RMK A01 T00-00-107  RH  045%=      5-min Rain = 0
KMNS 070800Z 36004KT M00/M11 A3037 RMK A01 T10031107  RH  046%=      5-min Rain = 0
KMNS 070805Z 36005KT M00/M11 A3037 RMK A01 T10041106  RH  047%=      5-min Rain = 0
KMNS 070810Z 35005KT M00/M11 A3037 RMK A01 T10031107  RH  046%=      5-min Rain = 0
KMNS 070815Z 36006KT M00/M11 A3037 RMK A01 T10021107  RH  046%=      5-min Rain = 0
KMNS 070820Z 01006KT M00/M11 A3037 RMK A01 T10011107  RH  045%=      5-min Rain = 0
KMNS 070825Z 00006KT 00/11 A3037 RMK A01 T00000-108  RH  045%=      5-min Rain = 0
KMNS 070830Z 35006KT 00/11 A3037 RMK A01 T00-00-108  RH  045%=      5-min Rain = 0
KMNS 070835Z 35005KT M00/M11 A3037 RMK A01 T10031107  RH  046%=      5-min Rain = 0
KMNS 070840Z 35005KT M01/M11 A3037 RMK A01 T10061107  RH  047%=      5-min Rain = 0
KMNS 070845Z 35006KT M01/M11 A3037 RMK A01 T10071106  RH  048%=      5-min Rain = 0
KMNS 070850Z 36006KT M01/M11 A3037 RMK A01 T10071106  RH  048%=      5-min Rain = 0
KMNS 070855Z 00006KT M01/M11 A3037 RMK A01 T10061106  RH  047%=      5-min Rain = 0
KMNS 070900Z 00006KT M01/M11 A3037 RMK A01 T10061106  RH  047%=      5-min Rain = 0
KMNS 070905Z 36006KT M01/M11 A3037 RMK A01 T10071106  RH  048%=      5-min Rain = 0
KMNS 070910Z 36006KT M01/M11 A3037 RMK A01 T10081105  RH  048%=      5-min Rain = 0
KMNS 070915Z 00006KT M01/M11 A3037 RMK A01 T10081105  RH  048%=      5-min Rain = 0
KMNS 070920Z 01008KT M01/M11 A3038 RMK A01 T10071106  RH  048%=      5-min Rain = 0
KMNS 070925Z 01009KT M01/M11 A3038 RMK A01 T10051107  RH  047%=      5-min Rain = 0
KMNS 070930Z 01011KT M00/M11 A3038 RMK A01 T10011110  RH  044%=      5-min Rain = 0
KMNS 070935Z 01010KT M00/M11 A3038 RMK A01 T10011112  RH  044%=      5-min Rain = 0
KMNS 070940Z 01010KT M00/M11 A3038 RMK A01 T10011113  RH  043%=      5-min Rain = 0
KMNS 070945Z 01011KT M00/M12 A3038 RMK A01 T10011116  RH  042%=      5-min Rain = 0
KMNS 070950Z 02012KT 00/12 A3038 RMK A01 T00-00-119  RH  041%=      5-min Rain = 0
KMNS 070955Z 02011KT M00/M12 A3039 RMK A01 T10011120  RH  041%=      5-min Rain = 0
KMNS 071000Z 02012G18KT M00/M12 A3038 RMK A01 T10021122  RH  041%=      5-min Rain = 0
KMNS 071005Z 02015KT M00/M12 A3038 RMK A01 T10031124  RH  040%=      5-min Rain = 0
KMNS 071010Z 03015KT M00/M12 A3039 RMK A01 T10021124  RH  040%=      5-min Rain = 0
KMNS 071015Z 03015KT M00/M13 A3039 RMK A01 T10021125  RH  040%=      5-min Rain = 0
KMNS 071020Z 02014G19KT M00/M13 A3039 RMK A01 T10041125  RH  040%=      5-min Rain = 0
KMNS 071025Z 02014KT M01/M13 A3039 RMK A01 T10061125  RH  041%=      5-min Rain = 0
KMNS 071030Z 02015KT M01/M13 A3039 RMK A01 T10071125  RH  041%=      5-min Rain = 0
KMNS 071035Z 02012G17KT M01/M13 A3039 RMK A01 T10101125  RH  042%=      5-min Rain = 0
KMNS 071040Z 02014KT M01/M13 A3039 RMK A01 T10131125  RH  043%=      5-min Rain = 0
KMNS 071045Z 03015KT M01/M12 A3039 RMK A01 T10141124  RH  044%=      5-min Rain = 0
KMNS 071050Z 03015KT M02/M12 A3039 RMK A01 T10151122  RH  044%=      5-min Rain = 0
KMNS 071055Z 03015G21KT M02/M12 A3039 RMK A01 T10151120  RH  045%=      5-min Rain = 0
KMNS 071100Z 03013G18KT M02/M12 A3039 RMK A01 T10161120  RH  046%=      5-min Rain = 0
KMNS 071105Z 03014KT M02/M12 A3039 RMK A01 T10161119  RH  046%=      5-min Rain = 0
KMNS 071110Z 03013G18KT M02/M12 A304 RMK A01 T10171118  RH  046%=      5-min Rain = 0
KMNS 071115Z 03015KT M02/M12 A304 RMK A01 T10171117  RH  047%=      5-min Rain = 0
KMNS 071120Z 03013G18KT M02/M12 A304 RMK A01 T10181115  RH  048%=      5-min Rain = 0
KMNS 071125Z 03013KT M02/M11 A304 RMK A01 T10181112  RH  049%=      5-min Rain = 0
KMNS 071130Z 03015G22KT M02/M11 A304 RMK A01 T10181108  RH  051%=      5-min Rain = 0
KMNS 071135Z 03015KT M02/M10 A304 RMK A01 T10191104  RH  053%=      5-min Rain = 0
KMNS 071140Z 03016G22KT M02/M10 A304 RMK A01 T10201102  RH  054%=      5-min Rain = 0
KMNS 071145Z 03014G21KT M02/M10 A304 RMK A01 T10211101  RH  055%=      5-min Rain = 0
KMNS 071150Z 03017G23KT M02/M10 A304 RMK A01 T10221100  RH  056%=      5-min Rain = 0
KMNS 071155Z 03015G20KT M02/M10 A3041 RMK A01 T10231098  RH  057%=      5-min Rain = 0
KMNS 071200Z 03012KT M02/M10 A3041 RMK A01 T10241098  RH  058%=      5-min Rain = 0
KMNS 071205Z 03015G21KT M02/M10 A3041 RMK A01 T10241097  RH  058%=      5-min Rain = 0
KMNS 071210Z 03015KT M03/M10 A3041 RMK A01 T10251095  RH  059%=      5-min Rain = 0
KMNS 071215Z 03014G19KT M03/M10 A3042 RMK A01 T10261095  RH  060%=      5-min Rain = 0
KMNS 071220Z 02012KT M03/M10 A3042 RMK A01 T10261095  RH  060%=      5-min Rain = 0
KMNS 071225Z 01012G17KT M03/M10 A3042 RMK A01 T10291097  RH  060%=      5-min Rain = 0
KMNS 071230Z 02014KT M03/M10 A3042 RMK A01 T10311099  RH  060%=      5-min Rain = 0
KMNS 071235Z 02013KT M03/M10 A3043 RMK A01 T10321099  RH  061%=      5-min Rain = 0
KMNS 071240Z 02014KT M03/M10 A3043 RMK A01 T10331100  RH  061%=      5-min Rain = 0
KMNS 071245Z 02013KT M03/M10 A3043 RMK A01 T10331101  RH  060%=      5-min Rain = 0
KMNS 071250Z 03011KT M03/M10 A3043 RMK A01 T10331102  RH  060%=      5-min Rain = 0
KMNS 071255Z 02009KT M03/M10 A3044 RMK A01 T10341102  RH  060%=      5-min Rain = 0
KMNS 071300Z 02012KT M03/M10 A3044 RMK A01 T10341102  RH  060%=      5-min Rain = 0
KMNS 071305Z 03010G16KT M03/M10 A3044 RMK A01 T10341102  RH  060%=      5-min Rain = 0
KMNS 071310Z 02010KT M03/M10 A3044 RMK A01 T10341101  RH  060%=      5-min Rain = 0
KMNS 071315Z 02009KT M03/M10 A3044 RMK A01 T10341101  RH  060%=      5-min Rain = 0
KMNS 071320Z 02010KT M03/M10 A3044 RMK A01 T10341102  RH  060%=      5-min Rain = 0
KMNS 071325Z 03011KT M03/M10 A3044 RMK A01 T10341103  RH  060%=      5-min Rain = 0
KMNS 071330Z 03010KT M03/M10 A3044 RMK A01 T10341103  RH  059%=      5-min Rain = 0
KMNS 071335Z 03012KT M03/M10 A3044 RMK A01 T10341104  RH  059%=      5-min Rain = 0
KMNS 071340Z 03011KT M03/M10 A3044 RMK A01 T10341104  RH  059%=      5-min Rain = 0
KMNS 071345Z 03010KT M03/M10 A3044 RMK A01 T10331104  RH  059%=      5-min Rain = 0
KMNS 071350Z 03010KT M03/M10 A3044 RMK A01 T10331104  RH  059%=      5-min Rain = 0
KMNS 071355Z 03011KT M03/M10 A3044 RMK A01 T10331104  RH  059%=      5-min Rain = 0
KMNS 071400Z 03010KT M03/M10 A3044 RMK A01 T10331104  RH  058%=      5-min Rain = 0
KMNS 071405Z 03008KT M03/M10 A3044 RMK A01 T10331104  RH  058%=      5-min Rain = 0
KMNS 071410Z 03009KT M03/M11 A3044 RMK A01 T10331105  RH  058%=      5-min Rain = 0
KMNS 071415Z 03009KT M03/M11 A3044 RMK A01 T10331106  RH  058%=      5-min Rain = 0
KMNS 071420Z 02008KT M03/M11 A3044 RMK A01 T10331106  RH  058%=      5-min Rain = 0
KMNS 071425Z 02009KT M03/M11 A3045 RMK A01 T10341107  RH  058%=      5-min Rain = 0
KMNS 071430Z 03009KT M04/M11 A3045 RMK A01 T10351107  RH  058%=      5-min Rain = 0
KMNS 071435Z 03012KT M04/M11 A3045 RMK A01 T10371111  RH  057%=      5-min Rain = 0
KMNS 071440Z 03010G15KT M04/M11 A3046 RMK A01 T10381114  RH  056%=      5-min Rain = 0
KMNS 071445Z 03011KT M04/M12 A3045 RMK A01 T10391115  RH  056%=      5-min Rain = 0
KMNS 071450Z 03011KT M04/M12 A3046 RMK A01 T10371116  RH  055%=      5-min Rain = 0
KMNS 071455Z 03012KT M04/M12 A3046 RMK A01 T10371118  RH  054%=      5-min Rain = 0
KMNS 071500Z 03010KT M04/M12 A3046 RMK A01 T10351117  RH  054%=      5-min Rain = 0
KMNS 071505Z 04010KT M03/M12 A3046 RMK A01 T10341118  RH  053%=      5-min Rain = 0
KMNS 071510Z 04009KT M04/M12 A3046 RMK A01 T10371118  RH  054%=      5-min Rain = 0
KMNS 071515Z 04008KT M03/M12 A3046 RMK A01 T10331115  RH  054%=      5-min Rain = 0
KMNS 071520Z 03007KT M03/M11 A3046 RMK A01 T10281113  RH  053%=      5-min Rain = 0
KMNS 071525Z 03009KT M02/M11 A3046 RMK A01 T10241111  RH  052%=      5-min Rain = 0
KMNS 071530Z 03009KT M02/M11 A3046 RMK A01 T10231112  RH  051%=      5-min Rain = 0
KMNS 071535Z 03010KT M02/M11 A3046 RMK A01 T10201112  RH  050%=      5-min Rain = 0
KMNS 071540Z 03011KT M02/M11 A3046 RMK A01 T10191114  RH  049%=      5-min Rain = 0
KMNS 071545Z 03011KT M02/M11 A3046 RMK A01 T10211114  RH  050%=      5-min Rain = 0
KMNS 071550Z 03012KT M02/M12 A3046 RMK A01 T10201116  RH  049%=      5-min Rain = 0
KMNS 071555Z 03013KT M02/M12 A3046 RMK A01 T10211118  RH  048%=      5-min Rain = 0
KMNS 071600Z 02012KT M02/M12 A3046 RMK A01 T10231121  RH  048%=      5-min Rain = 0
KMNS 071605Z 02010G15KT M02/M12 A3046 RMK A01 T10201119  RH  047%=      5-min Rain = 0
KMNS 071610Z 03011KT M02/M12 A3046 RMK A01 T10211121  RH  047%=      5-min Rain = 0
KMNS 071615Z 04011KT M02/M12 A3046 RMK A01 T10191122  RH  046%=      5-min Rain = 0
KMNS 071620Z 04011KT M02/M12 A3046 RMK A01 T10211124  RH  046%=      5-min Rain = 0
KMNS 071625Z 04011KT M02/M13 A3046 RMK A01 T10211125  RH  046%=      5-min Rain = 0
KMNS 071630Z 03010KT M02/M12 A3046 RMK A01 T10191124  RH  045%=      5-min Rain = 0
KMNS 071635Z 03009KT M02/M12 A3046 RMK A01 T10191124  RH  045%=      5-min Rain = 0
KMNS 071640Z 03011KT M02/M12 A3046 RMK A01 T10171124  RH  044%=      5-min Rain = 0
KMNS 071645Z 03010G15KT M02/M12 A3046 RMK A01 T10151124  RH  044%=      5-min Rain = 0
KMNS 071650Z 03007KT M01/M12 A3046 RMK A01 T10111121  RH  043%=      5-min Rain = 0
KMNS 071655Z 02009KT M01/M12 A3046 RMK A01 T10071120  RH  043%=      5-min Rain = 0
KMNS 071700Z 02008KT M00/M12 A3046 RMK A01 T10031117  RH  043%=      5-min Rain = 0
KMNS 071705Z 02009KT M00/M12 A3046 RMK A01 T10011118  RH  042%=      5-min Rain = 0
KMNS 071710Z 03011KT M00/M12 A3046 RMK A01 T10021120  RH  041%=      5-min Rain = 0
KMNS 071715Z 01010KT M00/M12 A3046 RMK A01 T10021120  RH  041%=      5-min Rain = 0
KMNS 071720Z 03011KT 00/12 A3046 RMK A01 T00000-118  RH  041%=      5-min Rain = 0
KMNS 071725Z 02011G16KT 00/M12 A3045 RMK A01 T00011118  RH  041%=      5-min Rain = 0
KMNS 071730Z 02009KT 00/M12 A3045 RMK A01 T00031119  RH  040%=      5-min Rain = 0
KMNS 071735Z 02011KT 01/M12 A3045 RMK A01 T00051118  RH  040%=      5-min Rain = 0
KMNS 071740Z 03010KT 01/M12 A3045 RMK A01 T00081117  RH  039%=      5-min Rain = 0
KMNS 071745Z 03010G15KT 01/M12 A3045 RMK A01 T00101117  RH  038%=      5-min Rain = 0
KMNS 071750Z 02011KT 01/M12 A3044 RMK A01 T00111118  RH  038%=      5-min Rain = 0
KMNS 071755Z 02011G17KT 01/M12 A3044 RMK A01 T00131118  RH  038%=      5-min Rain = 0
KMNS 071800Z 02011KT 01/M12 A3044 RMK A01 T00131118  RH  037%=      5-min Rain = 0
KMNS 071805Z 03013KT 01/M12 A3044 RMK A01 T00121120  RH  037%=      5-min Rain = 0
KMNS 071810Z 03013G18KT 01/M12 A3043 RMK A01 T00141121  RH  036%=      5-min Rain = 0
KMNS 071815Z 03013G18KT 01/M12 A3043 RMK A01 T00141120  RH  037%=      5-min Rain = 0
KMNS 071820Z 02014KT 01/M12 A3043 RMK A01 T00121122  RH  037%=      5-min Rain = 0
KMNS 071825Z 01014KT 01/M12 A3043 RMK A01 T00121121  RH  037%=      5-min Rain = 0
KMNS 071830Z 02013KT 01/M12 A3042 RMK A01 T00121123  RH  036%=      5-min Rain = 0
KMNS 071835Z 02012KT 01/M12 A3042 RMK A01 T00141122  RH  036%=      5-min Rain = 0
KMNS 071840Z 02011G16KT 02/M12 A3041 RMK A01 T00161122  RH  036%=      5-min Rain = 0
KMNS 071845Z 02011KT 02/M12 A3041 RMK A01 T00191121  RH  035%=      5-min Rain = 0
KMNS 071850Z 02013KT 02/M12 A304 RMK A01 T00201123  RH  034%=      5-min Rain = 0
KMNS 071855Z 02012G17KT 02/M12 A304 RMK A01 T00241121  RH  034%=      5-min Rain = 0
KMNS 071900Z 02012KT 02/M12 A304 RMK A01 T00191124  RH  034%=      5-min Rain = 0
KMNS 071905Z 02011KT 02/M12 A304 RMK A01 T00201124  RH  034%=      5-min Rain = 0
KMNS 071910Z 03014G19KT 02/M12 A304 RMK A01 T00191124  RH  034%=      5-min Rain = 0
KMNS 071915Z 02010KT 02/M12 A3039 RMK A01 T00211123  RH  034%=      5-min Rain = 0
KMNS 071920Z 02009G14KT 02/M12 A3039 RMK A01 T00211123  RH  034%=      5-min Rain = 0
KMNS 071925Z 01010G15KT 02/M12 A3039 RMK A01 T00231123  RH  034%=      5-min Rain = 0
KMNS 071930Z 03009G15KT 02/M12 A3039 RMK A01 T00231123  RH  033%=      5-min Rain = 0
KMNS 071935Z 01007G14KT 02/M12 A3038 RMK A01 T00221123  RH  034%=      5-min Rain = 0
KMNS 071940Z 02010KT 02/M12 A3038 RMK A01 T00241122  RH  034%=      5-min Rain = 0
KMNS 071945Z 01010KT 03/M12 A3038 RMK A01 T00261123  RH  033%=      5-min Rain = 0
KMNS 071950Z 36012KT 03/M13 A3038 RMK A01 T00251127  RH  032%=      5-min Rain = 0
KMNS 071955Z 36011G16KT 03/M13 A3037 RMK A01 T00251128  RH  032%=      5-min Rain = 0
KMNS 072000Z 01010G15KT 03/M13 A3037 RMK A01 T00271127  RH  032%=      5-min Rain = 0
KMNS 072005Z 00009G14KT 03/M13 A3037 RMK A01 T00281126  RH  032%=      5-min Rain = 0
KMNS 072010Z 01009G14KT 03/M13 A3036 RMK A01 T00271126  RH  032%=      5-min Rain = 0
KMNS 072015Z 02009G14KT 03/M12 A3036 RMK A01 T00311123  RH  032%=      5-min Rain = 0
KMNS 072020Z 03009G15KT 04/M12 A3036 RMK A01 T00351123  RH  031%=      5-min Rain = 0
KMNS 072025Z 02010KT 03/M13 A3035 RMK A01 T00341127  RH  030%=      5-min Rain = 0
KMNS 072030Z 01009KT 03/M13 A3035 RMK A01 T00341127  RH  030%=      5-min Rain = 0
KMNS 072035Z 01011G18KT 04/M13 A3035 RMK A01 T00361128  RH  030%=      5-min Rain = 0
KMNS 072040Z 01008KT 03/M13 A3035 RMK A01 T00341129  RH  030%=      5-min Rain = 0
KMNS 072045Z 01009G16KT 04/M13 A3035 RMK A01 T00371126  RH  030%=      5-min Rain = 0
KMNS 072050Z 35010G17KT 04/M13 A3034 RMK A01 T00371129  RH  029%=      5-min Rain = 0
KMNS 072055Z 01013G18KT 03/M13 A3034 RMK A01 T00341129  RH  029%=      5-min Rain = 0
KMNS 072100Z 35011KT 03/M13 A3034 RMK A01 T00321128  RH  030%=      5-min Rain = 0
KMNS 072105Z 36010KT 03/M13 A3034 RMK A01 T00341126  RH  030%=      5-min Rain = 0
KMNS 072110Z 02007G12KT 03/M13 A3034 RMK A01 T00331127  RH  030%=      5-min Rain = 0
KMNS 072115Z 01011G16KT 04/M13 A3034 RMK A01 T00351125  RH  030%=      5-min Rain = 0
KMNS 072120Z 36011KT 03/M13 A3034 RMK A01 T00341127  RH  030%=      5-min Rain = 0
KMNS 072125Z 36008G13KT 04/M12 A3033 RMK A01 T00361124  RH  030%=      5-min Rain = 0
KMNS 072130Z 35008KT 04/M13 A3033 RMK A01 T00381126  RH  030%=      5-min Rain = 0
KMNS 072135Z 35010KT 04/M13 A3033 RMK A01 T00391127  RH  029%=      5-min Rain = 0
KMNS 072140Z 35010KT 04/M13 A3033 RMK A01 T00371129  RH  029%=      5-min Rain = 0
KMNS 072145Z 35009KT 04/M13 A3032 RMK A01 T00371127  RH  029%=      5-min Rain = 0
KMNS 072150Z 35010KT 04/M13 A3032 RMK A01 T00381128  RH  029%=      5-min Rain = 0
KMNS 072155Z 35008G13KT 04/M13 A3032 RMK A01 T00361128  RH  030%=      5-min Rain = 0
KMNS 072200Z 35011G18KT 04/M13 A3032 RMK A01 T00361128  RH  029%=      5-min Rain = 0
KMNS 072205Z 35013KT 03/M13 A3032 RMK A01 T00311133  RH  029%=      5-min Rain = 0
KMNS 072210Z 36010KT 03/M13 A3032 RMK A01 T00311131  RH  030%=      5-min Rain = 0
KMNS 072215Z 35009KT 04/M13 A3032 RMK A01 T00381129  RH  029%=      5-min Rain = 0
KMNS 072220Z 34010KT 04/M13 A3032 RMK A01 T00381129  RH  029%=      5-min Rain = 0
KMNS 072225Z 35010KT 04/M13 A3031 RMK A01 T00391128  RH  029%=      5-min Rain = 0
KMNS 072230Z 35008KT 04/M13 A3031 RMK A01 T00391129  RH  029%=      5-min Rain = 0
KMNS 072235Z 35007KT 04/M13 A3031 RMK A01 T00361129  RH  029%=      5-min Rain = 0
KMNS 072240Z 35008KT 04/M13 A3031 RMK A01 T00371129  RH  029%=      5-min Rain = 0
KMNS 072245Z 34009KT 04/M13 A3031 RMK A01 T00381129  RH  029%=      5-min Rain = 0
KMNS 072250Z 33008KT 04/M13 A3031 RMK A01 T00371129  RH  029%=      5-min Rain = 0
KMNS 072255Z 33010KT 04/M13 A3031 RMK A01 T00361130  RH  029%=      5-min Rain = 0
KMNS 072300Z 33008KT 04/M13 A3031 RMK A01 T00351130  RH  029%=      5-min Rain = 0
KMNS 072305Z 32006KT 04/M13 A3031 RMK A01 T00351130  RH  029%=      5-min Rain = 0
KMNS 072310Z 32008KT 03/M13 A3031 RMK A01 T00341130  RH  029%=      5-min Rain = 0
KMNS 072315Z 32006KT 03/M13 A3031 RMK A01 T00331131  RH  029%=      5-min Rain = 0
KMNS 072320Z 32008KT 03/M13 A3031 RMK A01 T00311132  RH  030%=      5-min Rain = 0
KMNS 072325Z 33007KT 03/M13 A3031 RMK A01 T00281133  RH  030%=      5-min Rain = 0
KMNS 072330Z 33007KT 03/M13 A3031 RMK A01 T00251133  RH  031%=      5-min Rain = 0
KMNS 072335Z 33006KT 02/M13 A303 RMK A01 T00201134  RH  031%=      5-min Rain = 0
KMNS 072340Z 33007KT 02/M14 A303 RMK A01 T00161135  RH  032%=      5-min Rain = 0
KMNS 072345Z 33007KT 01/M14 A303 RMK A01 T00131135  RH  033%=      5-min Rain = 0
KMNS 072350Z 33007KT 01/M14 A3031 RMK A01 T00111136  RH  033%=      5-min Rain = 0
KMNS 072355Z 32006KT 01/M14 A3031 RMK A01 T00051138  RH  034%=      5-min Rain = 0
KMNS 080000Z 32006KT M00/M14 A3031 RMK A01 T10011139  RH  035%=      5-min Rain = 0
KMNS 080005Z 32006KT M01/M14 A3031 RMK A01 T10061140  RH  036%=      5-min Rain = 0
KMNS 080010Z 31005KT M01/M14 A3031 RMK A01 T10101140  RH  037%=      5-min Rain = 0
KMNS 080015Z 31006KT M01/M14 A3031 RMK A01 T10111139  RH  038%=      5-min Rain = 0
KMNS 080020Z 31005KT M01/M14 A3031 RMK A01 T10131140  RH  038%=      5-min Rain = 0
KMNS 080025Z 30005KT M02/M14 A3031 RMK A01 T10151140  RH  039%=      5-min Rain = 0
KMNS 080030Z 30005KT M02/M14 A3031 RMK A01 T10181140  RH  039%=      5-min Rain = 0
KMNS 080035Z 29006KT M02/M14 A3031 RMK A01 T10201135  RH  041%=      5-min Rain = 0
KMNS 080040Z 29006KT M02/M13 A3031 RMK A01 T10191134  RH  042%=      5-min Rain = 0
KMNS 080045Z 29006KT M02/M13 A3031 RMK A01 T10201134  RH  042%=      5-min Rain = 0
KMNS 080050Z 29007KT M02/M13 A3031 RMK A01 T10181134  RH  041%=      5-min Rain = 0
KMNS 080055Z 29006KT M02/M13 A3031 RMK A01 T10171134  RH  041%=      5-min Rain = 0
KMNS 080100Z 29005KT M02/M13 A3031 RMK A01 T10201133  RH  042%=      5-min Rain = 0
KMNS 080105Z 28005KT M02/M14 A3031 RMK A01 T10231136  RH  042%=      5-min Rain = 0
KMNS 080110Z 27005KT M03/M14 A3031 RMK A01 T10271138  RH  043%=      5-min Rain = 0
KMNS 080115Z 27004KT M03/M14 A3031 RMK A01 T10291139  RH  043%=      5-min Rain = 0
KMNS 080120Z 27005KT M03/M14 A3031 RMK A01 T10301140  RH  043%=      5-min Rain = 0
KMNS 080125Z 27005KT M03/M14 A3031 RMK A01 T10331141  RH  044%=      5-min Rain = 0
KMNS 080130Z 26004KT M04/M14 A3031 RMK A01 T10381142  RH  045%=      5-min Rain = 0
KMNS 080135Z 27005KT M04/M14 A3031 RMK A01 T10401142  RH  045%=      5-min Rain = 0
KMNS 080140Z 26005KT M04/M14 A3031 RMK A01 T10411141  RH  046%=      5-min Rain = 0
KMNS 080145Z 26005KT M04/M14 A3031 RMK A01 T10381138  RH  046%=      5-min Rain = 0
KMNS 080150Z 26005KT M04/M14 A3031 RMK A01 T10371138  RH  046%=      5-min Rain = 0
KMNS 080155Z 27005KT M04/M14 A3031 RMK A01 T10401140  RH  046%=      5-min Rain = 0
KMNS 080200Z 27005KT M04/M14 A3031 RMK A01 T10431140  RH  047%=      5-min Rain = 0
KMNS 080205Z 27005KT M05/M14 A3031 RMK A01 T10451140  RH  048%=      5-min Rain = 0
KMNS 080210Z 26004KT M05/M14 A3031 RMK A01 T10451140  RH  048%=      5-min Rain = 0
KMNS 080215Z 26005KT M04/M14 A3031 RMK A01 T10441140  RH  048%=      5-min Rain = 0
KMNS 080220Z 26005KT M04/M14 A3031 RMK A01 T10431140  RH  047%=      5-min Rain = 0
KMNS 080225Z 26005KT M05/M14 A303 RMK A01 T10461141  RH  048%=      5-min Rain = 0
KMNS 080230Z 27005KT M05/M14 A303 RMK A01 T10491142  RH  049%=      5-min Rain = 0
KMNS 080235Z 27005KT M05/M14 A303 RMK A01 T10511142  RH  050%=      5-min Rain = 0
KMNS 080240Z 27006KT M05/M14 A303 RMK A01 T10511141  RH  050%=      5-min Rain = 0
KMNS 080245Z 27005KT M05/M14 A303 RMK A01 T10521141  RH  050%=      5-min Rain = 0
KMNS 080250Z 26005KT M05/M14 A303 RMK A01 T10521141  RH  050%=      5-min Rain = 0
KMNS 080255Z 27005KT M05/M14 A303 RMK A01 T10511141  RH  050%=      5-min Rain = 0
KMNS 080300Z 27005KT M05/M14 A303 RMK A01 T10531142  RH  051%=      5-min Rain = 0
KMNS 080305Z 27005KT M06/M14 A3029 RMK A01 T10551142  RH  051%=      5-min Rain = 0
KMNS 080310Z 27005KT M06/M14 A3029 RMK A01 T10571142  RH  052%=      5-min Rain = 0
KMNS 080315Z 27006KT M06/M14 A3029 RMK A01 T10581142  RH  052%=      5-min Rain = 0
KMNS 080320Z 27006KT M06/M14 A3029 RMK A01 T10571140  RH  053%=      5-min Rain = 0
KMNS 080325Z 27006KT M06/M14 A3029 RMK A01 T10561140  RH  053%=      5-min Rain = 0
KMNS 080330Z 28006KT M06/M14 A3029 RMK A01 T10571140  RH  053%=      5-min Rain = 0
KMNS 080335Z 28007KT M05/M14 A3029 RMK A01 T10541137  RH  053%=      5-min Rain = 0
KMNS 080340Z 28007KT M05/M14 A3029 RMK A01 T10501136  RH  052%=      5-min Rain = 0
KMNS 080345Z 28007KT M05/M14 A3029 RMK A01 T10491137  RH  051%=      5-min Rain = 0
KMNS 080350Z 28007KT M05/M14 A3029 RMK A01 T10491137  RH  051%=      5-min Rain = 0
KMNS 080355Z 28008KT M05/M14 A3029 RMK A01 T10481136  RH  051%=      5-min Rain = 0
KMNS 080400Z 28007KT M05/M14 A3029 RMK A01 T10471136  RH  050%=      5-min Rain = 0
KMNS 080405Z 28007KT M05/M14 A3029 RMK A01 T10481136  RH  051%=      5-min Rain = 0
KMNS 080410Z 28007KT M05/M14 A3029 RMK A01 T10491136  RH  051%=      5-min Rain = 0
KMNS 080415Z 28008KT M05/M14 A3029 RMK A01 T10481135  RH  051%=      5-min Rain = 0
KMNS 080420Z 28008KT M05/M14 A3029 RMK A01 T10471135  RH  051%=      5-min Rain = 0
KMNS 080425Z 28009KT M05/M13 A3029 RMK A01 T10451133  RH  051%=      5-min Rain = 0
KMNS 080430Z 28009KT M04/M13 A3029 RMK A01 T10431133  RH  050%=      5-min Rain = 0
KMNS 080435Z 27008KT M04/M13 A3029 RMK A01 T10431133  RH  050%=      5-min Rain = 0
KMNS 080440Z 28009KT M04/M13 A3029 RMK A01 T10411132  RH  050%=      5-min Rain = 0
KMNS 080445Z 27009KT M04/M13 A3029 RMK A01 T10391132  RH  049%=      5-min Rain = 0
KMNS 080450Z 27009KT M04/M13 A3029 RMK A01 T10401133  RH  049%=      5-min Rain = 0
KMNS 080455Z 28009KT M04/M13 A3029 RMK A01 T10401133  RH  049%=      5-min Rain = 0
KMNS 080500Z 28009KT M04/M13 A3029 RMK A01 T10411133  RH  050%=      5-min Rain = 0
KMNS 080505Z 28009KT M04/M13 A3029 RMK A01 T10421133  RH  050%=      5-min Rain = 0
KMNS 080510Z 28009KT M04/M13 A3029 RMK A01 T10431133  RH  050%=      5-min Rain = 0
KMNS 080515Z 28009KT M04/M13 A3029 RMK A01 T10431133  RH  050%=      5-min Rain = 0
KMNS 080520Z 27009KT M04/M13 A3029 RMK A01 T10431133  RH  050%=      5-min Rain = 0
KMNS 080525Z 28009KT M04/M13 A3029 RMK A01 T10441134  RH  050%=      5-min Rain = 0
KMNS 080530Z 28008KT M05/M13 A3029 RMK A01 T10451133  RH  051%=      5-min Rain = 0
KMNS 080535Z 28009KT M05/M13 A3029 RMK A01 T10451132  RH  051%=      5-min Rain = 0
KMNS 080540Z 28009KT M04/M13 A3029 RMK A01 T10441131  RH  051%=      5-min Rain = 0
KMNS 080545Z 28010KT M04/M13 A3028 RMK A01 T10441132  RH  051%=      5-min Rain = 0
KMNS 080550Z 28009KT M05/M13 A3028 RMK A01 T10461133  RH  051%=      5-min Rain = 0
KMNS 080555Z 28008KT M05/M13 A3028 RMK A01 T10471133  RH  052%=      5-min Rain = 0
KMNS 080600Z 29007KT M05/M13 A3028 RMK A01 T10481131  RH  053%=      5-min Rain = 0

Page generated in 0.0178 seconds.